Time;durP1;ratioP1;P1;durP2;ratioP2;P2;SDS_P1;SDS_P2;PMS_P1;PMS_P2;Temp;Humidity;BMP_temperature;BMP_pressure;BME280_temperature;BME280_humidity;BME280_pressure;Samples;Min_cycle;Max_cycle;Signal;HPM_P1;HPM_P2
2021/06/09 00:02:19;;;;;;;28.90;17.80;;;;;;;14.69;nan;97032.19;3497502;40;20468;-70
2021/06/09 00:04:47;;;;;;;25.07;17.33;;;;;;;14.68;nan;97044.53;3487853;40;20464;-71
2021/06/09 00:07:14;;;;;;;31.33;17.40;;;;;;;14.67;nan;97048.13;3497848;40;20462;-71
2021/06/09 00:09:41;;;;;;;27.37;19.57;;;;;;;14.62;nan;97037.06;3497193;40;20500;-71
2021/06/09 00:12:09;;;;;;;25.70;18.40;;;;;;;14.58;nan;97031.22;3497659;40;20786;-71
2021/06/09 00:14:38;;;;;;;22.90;17.70;;;;;;;14.60;nan;97039.84;3497155;40;20502;-72
2021/06/09 00:17:05;;;;;;;23.67;18.40;;;;;;;14.53;nan;97048.31;3497624;40;20441;-71
2021/06/09 00:19:33;;;;;;;23.17;18.47;;;;;;;14.44;nan;97034.06;3495692;40;20848;-71
2021/06/09 00:22:00;;;;;;;25.63;18.63;;;;;;;14.51;nan;97039.69;3497288;40;20712;-71
2021/06/09 00:24:27;;;;;;;25.70;19.70;;;;;;;14.54;nan;97040.28;3497815;40;20825;-70
2021/06/09 00:26:55;;;;;;;34.17;20.80;;;;;;;14.41;nan;97040.41;3497708;40;20789;-71
2021/06/09 00:29:23;;;;;;;32.63;19.00;;;;;;;14.42;nan;97041.25;3496394;40;20479;-71
2021/06/09 00:31:52;;;;;;;27.27;20.63;;;;;;;14.40;nan;97045.78;3497784;40;20448;-71
2021/06/09 00:34:19;;;;;;;24.90;18.13;;;;;;;14.41;nan;97043.03;3487930;40;20460;-71
2021/06/09 00:36:46;;;;;;;18.00;13.13;;;;;;;14.35;nan;97046.16;3497088;40;20911;-70
2021/06/09 00:39:14;;;;;;;19.67;16.27;;;;;;;14.25;nan;97055.72;3498155;40;20594;-70
2021/06/09 00:41:43;;;;;;;18.50;14.40;;;;;;;14.25;nan;97055.72;3497905;40;20445;-70
2021/06/09 00:44:11;;;;;;;22.43;14.00;;;;;;;13.93;nan;97045.81;3497015;40;20707;-71
2021/06/09 00:46:40;;;;;;;17.00;13.50;;;;;;;13.88;nan;97041.84;3497926;40;20456;-71
2021/06/09 00:49:09;;;;;;;21.87;15.67;;;;;;;14.00;nan;97052.31;3488082;40;20519;-70
2021/06/09 00:51:37;;;;;;;21.00;15.00;;;;;;;14.10;nan;97049.00;3496883;40;20852;-71
2021/06/09 00:54:05;;;;;;;24.90;12.73;;;;;;;14.15;nan;97049.47;3496756;40;20543;-70
2021/06/09 00:56:35;;;;;;;20.43;14.50;;;;;;;14.18;nan;97047.44;3496972;40;20813;-71
2021/06/09 00:59:03;;;;;;;22.60;16.80;;;;;;;14.23;nan;97047.09;3495808;40;20491;-71
2021/06/09 01:01:31;;;;;;;24.23;17.90;;;;;;;14.16;nan;97044.06;3488970;40;20992;-70
2021/06/09 01:03:59;;;;;;;28.83;19.23;;;;;;;14.17;nan;97037.00;3497119;40;20554;-70
2021/06/09 01:06:28;;;;;;;34.93;20.40;;;;;;;14.16;nan;97040.63;3497487;40;20868;-71
2021/06/09 01:08:56;;;;;;;32.47;17.80;;;;;;;14.18;nan;97044.81;3497716;40;20945;-71
2021/06/09 01:11:25;;;;;;;23.50;16.00;;;;;;;14.13;nan;97043.47;3498379;40;20452;-70
2021/06/09 01:13:53;;;;;;;25.50;15.30;;;;;;;14.12;nan;97041.81;3496601;40;20476;-70
2021/06/09 01:16:23;;;;;;;20.63;15.23;;;;;;;14.15;nan;97044.19;3487027;40;20502;-71
2021/06/09 01:18:51;;;;;;;44.73;16.83;;;;;;;14.14;nan;97045.16;3493647;40;20783;-71
2021/06/09 01:21:25;;;;;;;55.23;19.10;;;;;;;14.10;nan;97051.63;3495234;40;20916;-70
2021/06/09 01:23:52;;;;;;;42.77;16.93;;;;;;;13.85;nan;97053.47;3497158;40;20868;-71
2021/06/09 01:26:20;;;;;;;31.07;18.80;;;;;;;13.88;nan;97055.00;3496822;40;20457;-70
2021/06/09 01:28:47;;;;;;;47.00;21.73;;;;;;;13.84;nan;97052.63;3496106;40;20578;-71
2021/06/09 01:31:15;;;;;;;56.70;23.20;;;;;;;13.73;nan;97060.47;3487220;40;20587;-71
2021/06/09 01:33:44;;;;;;;41.90;21.80;;;;;;;13.88;nan;97058.50;3496657;40;20901;-71
2021/06/09 01:36:11;;;;;;;36.23;21.30;;;;;;;13.94;nan;97055.41;3496684;40;20671;-70
2021/06/09 01:38:41;;;;;;;166.97;24.73;;;;;;;13.74;nan;97050.78;3496515;40;20467;-70
2021/06/09 01:41:09;;;;;;;178.63;22.10;;;;;;;13.72;nan;97057.94;3497327;40;20747;-71
2021/06/09 01:43:36;;;;;;;83.87;20.07;;;;;;;13.63;nan;97044.53;3496126;40;20679;-71
2021/06/09 01:46:04;;;;;;;146.00;22.63;;;;;;;13.20;nan;97054.69;3488835;40;20728;-70
2021/06/09 01:48:32;;;;;;;105.57;23.53;;;;;;;12.98;nan;97050.97;3497611;40;20876;-70
2021/06/09 01:50:59;;;;;;;157.60;23.97;;;;;;;13.37;nan;97058.78;3497924;40;20531;-72
2021/06/09 01:53:26;;;;;;;149.87;25.47;;;;;;;13.46;nan;97052.81;3498579;40;21141;-70
2021/06/09 01:55:58;;;;;;;51.77;24.60;;;;;;;13.41;nan;97052.34;3498836;40;20445;-70
2021/06/09 01:58:26;;;;;;;38.20;23.53;;;;;;;13.64;nan;97050.63;3497607;40;20849;-70
2021/06/09 02:00:55;;;;;;;54.57;21.10;;;;;;;13.67;nan;97055.66;3497691;40;21205;-72
2021/06/09 02:03:22;;;;;;;28.30;20.50;;;;;;;13.70;nan;97046.69;3497184;40;20959;-71
2021/06/09 02:05:50;;;;;;;30.63;21.13;;;;;;;13.25;nan;97056.03;3498576;40;20923;-70
2021/06/09 02:08:17;;;;;;;23.10;18.80;;;;;;;13.41;nan;97040.00;3488192;40;20586;-70
2021/06/09 02:10:45;;;;;;;26.33;18.03;;;;;;;13.27;nan;97042.78;3499082;40;20448;-71
2021/06/09 02:13:15;;;;;;;24.73;18.77;;;;;;;13.58;nan;97045.81;3498205;40;20535;-71
2021/06/09 02:15:44;;;;;;;22.80;17.97;;;;;;;13.74;nan;97037.63;3499559;40;20562;-71
2021/06/09 02:18:13;;;;;;;21.87;17.67;;;;;;;13.77;nan;97029.50;3497087;40;20936;-70
2021/06/09 02:20:45;;;;;;;22.83;17.57;;;;;;;13.81;nan;97028.31;3497119;40;20479;-70
2021/06/09 02:23:14;;;;;;;20.20;16.40;;;;;;;13.86;nan;97028.81;3496886;40;20815;-70
2021/06/09 02:25:43;;;;;;;23.73;16.60;;;;;;;13.88;nan;97024.28;3495575;40;20781;-72
2021/06/09 02:28:11;;;;;;;26.47;17.97;;;;;;;13.99;nan;97026.91;3497435;40;21201;-71
2021/06/09 02:30:41;;;;;;;22.60;16.80;;;;;;;14.07;nan;97028.97;3489006;40;20544;-70
2021/06/09 02:33:08;;;;;;;20.67;17.63;;;;;;;14.08;nan;97025.41;3497998;40;20539;-70
2021/06/09 02:35:37;;;;;;;20.97;16.67;;;;;;;14.11;nan;97027.78;3498212;40;20817;-70
2021/06/09 02:38:06;;;;;;;19.97;16.20;;;;;;;14.11;nan;97022.50;3497549;40;20838;-69
2021/06/09 02:40:35;;;;;;;22.60;16.93;;;;;;;14.15;nan;97015.22;3495308;40;20919;-70
2021/06/09 02:43:03;;;;;;;21.60;17.40;;;;;;;14.11;nan;97013.78;3496948;40;20915;-69
2021/06/09 02:45:31;;;;;;;24.13;17.13;;;;;;;14.08;nan;97021.94;3497885;40;20841;-71
2021/06/09 02:48:05;;;;;;;22.00;16.60;;;;;;;14.12;nan;97018.09;3497944;40;20922;-70
2021/06/09 02:50:32;;;;;;;20.40;16.60;;;;;;;14.14;nan;97022.28;3497202;40;20483;-71
2021/06/09 02:53:06;;;;;;;20.27;16.00;;;;;;;14.14;nan;97021.47;3498406;40;20554;-71
2021/06/09 02:55:52;;;;;;;24.10;16.50;;;;;;;14.18;nan;97017.63;3495689;40;20888;-71
2021/06/09 02:58:30;;;;;;;20.70;16.43;;;;;;;14.15;nan;97013.44;3496946;40;20462;-71
2021/06/09 03:01:05;;;;;;;20.93;16.67;;;;;;;14.00;nan;97006.72;3497719;40;20445;-72
2021/06/09 03:03:45;;;;;;;21.40;16.67;;;;;;;14.10;nan;97015.59;3497488;40;20464;-70
2021/06/09 03:06:20;;;;;;;19.43;16.87;;;;;;;14.09;nan;97011.25;3496667;40;20690;-72
2021/06/09 03:09:00;;;;;;;19.83;15.80;;;;;;;14.03;nan;97012.59;3497689;40;20857;-72
2021/06/09 03:11:33;;;;;;;24.90;16.47;;;;;;;14.01;nan;97011.00;3487909;40;20560;-71
2021/06/09 03:14:16;;;;;;;20.87;15.33;;;;;;;13.96;nan;97019.28;3497664;40;20931;-71
2021/06/09 03:16:47;;;;;;;19.90;14.90;;;;;;;13.92;nan;97020.47;3495832;40;20857;-71
2021/06/09 03:19:20;;;;;;;25.17;16.20;;;;;;;13.92;nan;97022.25;3497423;40;20901;-72
2021/06/09 03:21:55;;;;;;;20.20;15.80;;;;;;;13.57;nan;97023.09;3497816;40;20827;-71
2021/06/09 03:24:28;;;;;;;25.20;14.30;;;;;;;13.71;nan;97024.69;3497230;40;21090;-70
2021/06/09 03:27:00;;;;;;;26.73;15.87;;;;;;;13.71;nan;97017.63;3497124;40;20563;-70
2021/06/09 03:29:34;;;;;;;19.77;15.20;;;;;;;13.79;nan;97017.91;3497006;40;20475;-70
2021/06/09 03:32:06;;;;;;;19.40;15.00;;;;;;;13.73;nan;97013.09;3496834;40;20836;-73
2021/06/09 03:34:43;;;;;;;21.23;15.13;;;;;;;13.87;nan;97019.94;3487348;40;20503;-70
2021/06/09 03:37:14;;;;;;;23.10;15.90;;;;;;;13.95;nan;97022.00;3497898;40;20456;-70
2021/06/09 03:39:45;;;;;;;20.60;15.90;;;;;;;13.73;nan;97018.34;3495413;40;20579;-70
2021/06/09 03:42:16;;;;;;;24.60;18.07;;;;;;;13.80;nan;97011.69;3497582;40;20762;-70
2021/06/09 03:44:48;;;;;;;20.00;15.60;;;;;;;13.87;nan;97009.44;3497024;40;20872;-70
2021/06/09 03:47:18;;;;;;;20.63;15.40;;;;;;;13.91;nan;97012.66;3497105;40;20461;-70
2021/06/09 03:49:48;;;;;;;21.50;16.00;;;;;;;13.90;nan;97018.88;3498241;40;20452;-71
2021/06/09 03:52:17;;;;;;;22.37;14.70;;;;;;;13.52;nan;97022.59;3498224;40;20961;-72
2021/06/09 03:54:48;;;;;;;19.87;14.60;;;;;;;13.75;nan;97020.88;3497928;40;20575;-72
2021/06/09 03:57:16;;;;;;;18.80;14.87;;;;;;;13.87;nan;97021.75;3498705;40;20460;-71
2021/06/09 03:59:46;;;;;;;18.13;14.90;;;;;;;13.96;nan;97018.44;3487073;40;20468;-72
2021/06/09 04:02:14;;;;;;;26.53;15.23;;;;;;;14.04;nan;97023.97;3496549;40;20559;-71
2021/06/09 04:04:43;;;;;;;21.53;16.10;;;;;;;14.09;nan;97023.59;3497096;40;20936;-71
2021/06/09 04:07:14;;;;;;;19.80;16.17;;;;;;;13.91;nan;97026.66;3497487;40;20923;-71
2021/06/09 04:09:44;;;;;;;20.30;16.00;;;;;;;13.72;nan;97024.59;3496735;40;20471;-69
2021/06/09 04:12:13;;;;;;;20.30;15.47;;;;;;;13.91;nan;97024.03;3498013;40;20480;-71
2021/06/09 04:14:44;;;;;;;18.80;14.50;;;;;;;14.10;nan;97025.28;3497259;40;20713;-71
2021/06/09 04:17:14;;;;;;;19.40;16.87;;;;;;;14.11;nan;97021.69;3496388;40;20863;-71
2021/06/09 04:19:44;;;;;;;26.17;17.37;;;;;;;14.18;nan;97036.91;3496863;40;21205;-71
2021/06/09 04:22:13;;;;;;;25.10;16.37;;;;;;;13.99;nan;97040.09;3497948;40;20837;-71
2021/06/09 04:24:41;;;;;;;29.77;17.43;;;;;;;14.28;nan;97039.66;3497475;40;20919;-70
2021/06/09 04:27:11;;;;;;;19.93;15.90;;;;;;;14.42;nan;97043.88;3497878;40;20685;-69
2021/06/09 04:29:38;;;;;;;24.03;15.93;;;;;;;14.53;nan;97038.63;3495790;40;20479;-71
2021/06/09 04:32:06;;;;;;;22.70;16.50;;;;;;;14.65;nan;97038.66;3498112;40;20698;-74
2021/06/09 04:34:45;;;;;;;22.30;16.73;;;;;;;14.74;nan;97044.03;3496257;40;20464;-72
2021/06/09 04:37:16;;;;;;;24.37;18.47;;;;;;;14.88;nan;97040.31;3497307;40;20452;-71
2021/06/09 04:39:44;;;;;;;18.77;16.50;;;;;;;14.82;nan;97039.00;3495891;40;20464;-71
2021/06/09 04:42:12;;;;;;;22.30;16.10;;;;;;;14.94;nan;97042.47;3498119;40;20464;-70
2021/06/09 04:44:42;;;;;;;24.23;16.90;;;;;;;14.94;nan;97041.63;3496950;40;20841;-71
2021/06/09 04:47:11;;;;;;;18.33;13.70;;;;;;;14.96;nan;97042.34;3498135;40;20475;-69
2021/06/09 04:49:41;;;;;;;22.33;12.20;;;;;;;14.33;nan;97042.81;3497623;40;20882;-70
2021/06/09 04:52:10;;;;;;;16.00;13.27;;;;;;;14.54;nan;97039.44;3497717;40;20555;-69
2021/06/09 04:54:39;;;;;;;16.80;13.20;;;;;;;14.67;nan;97037.56;3497094;40;20864;-69
2021/06/09 04:57:07;;;;;;;17.50;13.90;;;;;;;14.95;nan;97035.38;3498741;40;20456;-69
2021/06/09 04:59:35;;;;;;;17.20;14.33;;;;;;;15.14;nan;97043.50;3496602;40;20476;-70
2021/06/09 05:02:03;;;;;;;24.40;14.70;;;;;;;15.11;nan;97040.28;3497334;40;20830;-69
2021/06/09 05:04:31;;;;;;;20.47;15.63;;;;;;;15.25;nan;97047.94;3497654;40;20968;-69
2021/06/09 05:06:58;;;;;;;27.67;14.97;;;;;;;14.83;nan;97045.09;3498579;40;20959;-72
2021/06/09 05:09:26;;;;;;;23.37;16.30;;;;;;;14.82;nan;97044.28;3497911;40;20495;-69
2021/06/09 05:12:01;;;;;;;19.10;16.27;;;;;;;15.35;nan;97045.41;3496524;40;20520;-69
2021/06/09 05:14:32;;;;;;;21.80;15.37;;;;;;;15.53;nan;97046.53;3497304;40;20484;-70
2021/06/09 05:17:01;;;;;;;23.33;15.33;;;;;;;15.61;nan;97046.72;3496735;40;20579;-69
2021/06/09 05:19:31;;;;;;;18.00;15.53;;;;;;;15.68;nan;97046.22;3496403;40;21068;-70
2021/06/09 05:22:05;;;;;;;74.97;47.00;;;;;;;15.78;nan;97048.00;3497981;40;20452;-70
2021/06/09 05:24:34;;;;;;;31.03;21.63;;;;;;;16.00;nan;97043.59;3497460;40;21133;-70
2021/06/09 05:27:04;;;;;;;22.87;15.70;;;;;;;15.98;nan;97046.34;3496192;40;20779;-69
2021/06/09 05:29:35;;;;;;;20.30;13.93;;;;;;;15.97;nan;97026.19;3497529;40;20900;-69
2021/06/09 05:32:05;;;;;;;20.80;14.60;;;;;;;16.12;nan;97044.38;3497325;40;20470;-71
2021/06/09 05:34:34;;;;;;;19.80;15.70;;;;;;;16.39;nan;97044.66;3495452;40;20484;-69
2021/06/09 05:37:02;;;;;;;19.70;15.03;;;;;;;16.54;nan;97036.38;3499184;40;21177;-70
2021/06/09 05:39:29;;;;;;;18.43;14.40;;;;;;;16.73;nan;97033.81;3497022;40;20873;-69
2021/06/09 05:41:57;;;;;;;21.00;16.27;;;;;;;16.99;nan;97038.66;3497740;40;20540;-71
2021/06/09 05:44:29;;;;;;;20.07;15.13;;;;;;;17.34;nan;97037.34;3497680;40;20928;-70
2021/06/09 05:46:59;;;;;;;17.90;14.57;;;;;;;17.44;nan;97034.72;3497786;40;20956;-70
2021/06/09 05:49:27;;;;;;;23.27;15.73;;;;;;;17.64;nan;97039.06;3496700;40;20512;-71
2021/06/09 05:51:55;;;;;;;46.73;30.03;;;;;;;17.96;nan;97037.97;3497533;40;20699;-70
2021/06/09 05:54:23;;;;;;;22.03;15.63;;;;;;;18.16;nan;97036.97;3496636;40;20464;-69
2021/06/09 05:56:51;;;;;;;21.33;15.67;;;;;;;18.66;nan;97035.00;3496882;40;20724;-69
2021/06/09 05:59:18;;;;;;;19.63;16.07;;;;;;;18.79;nan;97027.56;3496871;40;20555;-70
2021/06/09 06:01:47;;;;;;;21.87;17.60;;;;;;;18.56;nan;97029.72;3497117;40;20451;-69
2021/06/09 06:04:15;;;;;;;29.17;15.60;;;;;;;18.60;nan;97028.47;3497421;40;20511;-69
2021/06/09 06:06:47;;;;;;;24.97;14.73;;;;;;;18.96;nan;97025.97;3495645;40;20460;-70
2021/06/09 06:09:15;;;;;;;24.93;17.03;;;;;;;18.73;nan;97031.63;3497236;40;20528;-71
2021/06/09 06:11:43;;;;;;;22.90;17.40;;;;;;;19.34;nan;96995.69;3498063;40;20566;-70
2021/06/09 06:14:12;;;;;;;20.47;14.20;;;;;;;19.62;nan;97037.28;3496964;40;21141;-70
2021/06/09 06:16:51;;;;;;;22.30;15.70;;;;;;;20.07;nan;97045.22;3497872;40;20551;-69
2021/06/09 06:19:19;;;;;;;19.40;13.63;;;;;;;19.55;nan;97037.91;3495449;40;20441;-71
2021/06/09 06:21:47;;;;;;;16.37;13.07;;;;;;;20.35;nan;97045.09;3497151;40;20456;-70
2021/06/09 06:24:17;;;;;;;23.60;13.57;;;;;;;20.67;nan;97043.63;3495903;40;20464;-69
2021/06/09 06:26:46;;;;;;;23.73;12.67;;;;;;;20.42;nan;97042.63;3496206;40;21373;-70
2021/06/09 06:29:14;;;;;;;17.37;13.10;;;;;;;20.34;nan;97038.91;3496370;40;20860;-71
2021/06/09 06:31:41;;;;;;;18.50;12.97;;;;;;;20.54;nan;97038.69;3496405;40;20901;-69
2021/06/09 06:34:11;;;;;;;17.00;10.57;;;;;;;20.92;nan;97037.44;3488727;40;20472;-71
2021/06/09 06:36:39;;;;;;;17.20;12.53;;;;;;;21.41;nan;97041.28;3499175;40;20523;-71
2021/06/09 06:39:07;;;;;;;20.60;11.37;;;;;;;21.08;nan;97043.81;3486875;40;20786;-70
2021/06/09 06:41:36;;;;;;;16.90;11.10;;;;;;;21.19;nan;97037.38;3499258;40;20523;-70
2021/06/09 06:44:04;;;;;;;16.50;11.70;;;;;;;21.42;nan;97033.09;3498743;40;20542;-71
2021/06/09 06:46:32;;;;;;;18.17;11.30;;;;;;;21.18;nan;97025.06;3498832;40;20460;-70
2021/06/09 06:49:00;;;;;;;62.30;39.77;;;;;;;21.25;nan;97037.56;3497852;40;21078;-69
2021/06/09 06:51:29;;;;;;;14.70;11.40;;;;;;;21.20;nan;97033.72;3498578;40;20881;-69
2021/06/09 06:53:59;;;;;;;14.07;10.17;;;;;;;21.22;nan;97026.41;3488247;40;20797;-69
2021/06/09 06:56:27;;;;;;;16.13;10.93;;;;;;;21.37;nan;97034.59;3497663;40;21421;-70
2021/06/09 06:58:55;;;;;;;12.30;8.70;;;;;;;21.84;nan;97026.06;3497646;40;20710;-70
2021/06/09 07:01:28;;;;;;;12.57;9.83;;;;;;;21.72;nan;97033.53;3499330;40;20453;-70
2021/06/09 07:03:56;;;;;;;12.60;10.17;;;;;;;21.89;nan;97031.69;3497036;40;20467;-69
2021/06/09 07:06:24;;;;;;;15.77;11.07;;;;;;;22.07;nan;97029.72;3497782;40;21081;-69
2021/06/09 07:08:59;;;;;;;12.37;10.57;;;;;;;21.97;nan;97036.19;3497831;40;20467;-71
2021/06/09 07:11:27;;;;;;;14.43;9.97;;;;;;;21.90;nan;97034.22;3498366;40;20475;-69
2021/06/09 07:13:59;;;;;;;12.57;9.83;;;;;;;21.62;nan;97027.50;3498201;40;20724;-69
2021/06/09 07:16:32;;;;;;;15.53;10.23;;;;;;;22.06;nan;97030.69;3497471;40;20555;-71
2021/06/09 07:19:01;;;;;;;13.37;11.23;;;;;;;21.89;nan;97024.56;3497154;40;20931;-70
2021/06/09 07:21:28;;;;;;;19.23;11.60;;;;;;;22.10;nan;97034.69;3497784;40;20884;-69
2021/06/09 07:23:56;;;;;;;11.07;9.60;;;;;;;21.95;nan;97036.38;3497769;40;20472;-70
2021/06/09 07:26:28;;;;;;;31.80;12.77;;;;;;;22.01;nan;97038.38;3497578;40;20535;-70
2021/06/09 07:28:57;;;;;;;18.60;11.70;;;;;;;22.56;nan;97042.19;3498192;40;20849;-71
2021/06/09 07:31:26;;;;;;;20.83;12.20;;;;;;;22.22;nan;97039.69;3498884;40;20483;-69
2021/06/09 07:33:54;;;;;;;18.03;11.67;;;;;;;22.49;nan;97036.69;3498548;40;20606;-70
2021/06/09 07:36:24;;;;;;;16.80;10.87;;;;;;;21.86;nan;97040.88;3498632;40;20567;-69
2021/06/09 07:38:58;;;;;;;11.80;9.87;;;;;;;22.53;nan;97045.19;3499204;40;20472;-69
2021/06/09 07:41:30;;;;;;;14.53;11.03;;;;;;;22.25;nan;97039.41;3497641;40;20769;-69
2021/06/09 07:44:01;;;;;;;41.13;32.47;;;;;;;22.74;nan;97049.13;3488106;40;20845;-71
2021/06/09 07:46:30;;;;;;;43.70;31.93;;;;;;;23.32;nan;97047.13;3498539;40;20475;-70
2021/06/09 07:49:00;;;;;;;17.80;14.00;;;;;;;22.88;nan;97045.78;3489761;40;20542;-70
2021/06/09 07:51:29;;;;;;;14.63;11.00;;;;;;;23.42;nan;97043.22;3499232;40;20547;-70
2021/06/09 07:54:01;;;;;;;19.30;11.73;;;;;;;23.93;nan;97044.59;3499284;40;20975;-71
2021/06/09 07:56:32;;;;;;;21.80;10.50;;;;;;;24.31;nan;97041.94;3499205;40;20594;-69
2021/06/09 07:59:02;;;;;;;14.30;12.17;;;;;;;23.34;nan;97043.25;3489530;40;20552;-71
2021/06/09 08:01:30;;;;;;;13.00;11.60;;;;;;;22.62;nan;97052.19;3498355;40;20746;-70
2021/06/09 08:03:59;;;;;;;20.67;12.37;;;;;;;23.42;nan;97043.22;3498363;40;20473;-69
2021/06/09 08:06:27;;;;;;;14.70;11.40;;;;;;;23.12;nan;97054.72;3489442;40;20679;-71
2021/06/09 08:08:55;;;;;;;19.60;11.30;;;;;;;23.39;nan;97053.44;3497954;40;20798;-70
2021/06/09 08:11:22;;;;;;;13.30;10.57;;;;;;;23.08;nan;97048.88;3489188;40;20793;-71
2021/06/09 08:13:51;;;;;;;14.37;10.03;;;;;;;23.73;nan;97055.72;3498274;40;20884;-71
2021/06/09 08:16:20;;;;;;;17.20;10.57;;;;;;;24.00;nan;97056.25;3496911;40;20686;-70
2021/06/09 08:18:48;;;;;;;16.63;10.40;;;;;;;23.95;nan;97053.25;3497722;40;20571;-71
2021/06/09 08:21:19;;;;;;;13.67;11.97;;;;;;;24.60;nan;97052.72;3498184;40;20850;-70
2021/06/09 08:23:49;;;;;;;17.77;12.17;;;;;;;25.67;nan;97051.44;3489553;40;20820;-70
2021/06/09 08:26:19;;;;;;;23.73;12.27;;;;;;;25.81;nan;97050.53;3497081;40;20456;-71
2021/06/09 08:28:47;;;;;;;16.43;12.20;;;;;;;26.13;nan;97053.78;3497506;40;20794;-69
2021/06/09 08:31:18;;;;;;;17.93;12.20;;;;;;;25.86;nan;97049.97;3498091;40;21099;-71
2021/06/09 08:33:46;;;;;;;19.90;11.07;;;;;;;25.79;nan;97046.41;3495878;40;20479;-70
2021/06/09 08:36:15;;;;;;;15.03;11.43;;;;;;;25.61;nan;97049.50;3497862;40;20487;-70
2021/06/09 08:38:44;;;;;;;16.90;10.57;;;;;;;24.30;nan;97056.31;3497773;40;20706;-71
2021/06/09 08:41:13;;;;;;;15.73;12.13;;;;;;;24.81;nan;97064.53;3506877;40;20461;-72
2021/06/09 08:43:43;;;;;;;13.33;10.10;;;;;;;26.21;nan;97053.66;3488886;40;20829;-70
2021/06/09 08:46:11;;;;;;;12.00;9.90;;;;;;;25.92;nan;97057.28;3498274;40;20774;-70
2021/06/09 08:48:44;;;;;;;28.60;22.43;;;;;;;25.57;nan;97050.91;3482780;40;20500;-71
2021/06/09 08:51:13;;;;;;;46.70;36.63;;;;;;;24.73;nan;97061.97;3498984;40;20903;-71
2021/06/09 08:53:44;;;;;;;14.67;11.00;;;;;;;24.49;nan;97061.16;3497944;40;20476;-70
2021/06/09 08:56:12;;;;;;;17.07;10.77;;;;;;;25.06;nan;97059.75;3497336;40;20825;-70
2021/06/09 08:58:40;;;;;;;15.93;10.80;;;;;;;25.90;nan;97059.31;3498544;40;21000;-71
2021/06/09 09:01:10;;;;;;;15.23;10.13;;;;;;;25.81;nan;97063.13;3497060;40;20444;-70
2021/06/09 09:03:41;;;;;;;12.87;10.00;;;;;;;26.38;nan;97067.63;3496288;40;20472;-70
2021/06/09 09:06:09;;;;;;;13.90;11.13;;;;;;;25.94;nan;97063.28;3490083;40;20468;-70
2021/06/09 09:08:36;;;;;;;13.10;10.20;;;;;;;25.71;nan;97062.63;3497512;40;20920;-71
2021/06/09 09:11:04;;;;;;;15.43;10.70;;;;;;;26.04;nan;97065.66;3497512;40;20850;-70
2021/06/09 09:13:32;;;;;;;15.63;9.33;;;;;;;25.64;nan;97065.25;3497862;40;21226;-70
2021/06/09 09:16:00;;;;;;;11.93;9.53;;;;;;;26.39;nan;97063.91;3498594;40;20448;-70
2021/06/09 09:18:40;;;;;;;13.93;10.10;;;;;;;27.02;nan;97063.94;3487294;40;20476;-70
2021/06/09 09:21:09;;;;;;;11.40;9.50;;;;;;;26.82;nan;97063.81;3498224;40;20460;-69
2021/06/09 09:23:37;;;;;;;14.50;8.10;;;;;;;27.29;nan;97058.75;3496603;40;20452;-70
2021/06/09 09:26:21;;;;;;;17.10;7.53;;;;;;;27.15;nan;97055.13;3496575;40;20531;-70
2021/06/09 09:28:49;;;;;;;9.67;8.30;;;;;;;27.69;nan;97064.25;3495264;40;20491;-70
2021/06/09 09:31:18;;;;;;;11.63;8.70;;;;;;;28.05;nan;97063.13;3496521;40;20441;-70
2021/06/09 09:33:47;;;;;;;7.90;6.60;;;;;;;28.09;nan;97063.53;3496510;40;20475;-70
2021/06/09 09:36:25;;;;;;;9.70;7.60;;;;;;;25.74;nan;97064.94;3488274;40;20472;-70
2021/06/09 09:38:53;;;;;;;8.00;7.10;;;;;;;26.73;nan;97064.19;3487136;40;21015;-70
2021/06/09 09:41:21;;;;;;;9.93;8.10;;;;;;;26.50;nan;97065.25;3497242;40;20441;-70
2021/06/09 09:43:51;;;;;;;15.17;9.33;;;;;;;25.33;nan;97070.84;3496554;40;20970;-70
2021/06/09 09:46:21;;;;;;;11.17;9.40;;;;;;;25.98;nan;97069.94;3497680;40;20454;-70
2021/06/09 09:49:01;;;;;;;9.03;7.40;;;;;;;25.39;nan;97068.25;3497425;40;21102;-70
2021/06/09 09:51:31;;;;;;;8.33;7.23;;;;;;;26.60;nan;97059.56;3498554;40;20769;-71
2021/06/09 09:54:01;;;;;;;12.10;8.23;;;;;;;26.03;nan;97067.53;3497005;40;20729;-71
2021/06/09 09:56:29;;;;;;;9.53;7.20;;;;;;;28.16;nan;97059.81;3497538;40;20916;-70
2021/06/09 09:59:00;;;;;;;11.63;8.63;;;;;;;26.76;nan;97058.44;3487884;40;20495;-70
2021/06/09 10:01:29;;;;;;;9.07;8.10;;;;;;;26.19;nan;97063.75;3497336;40;20952;-70
2021/06/09 10:03:58;;;;;;;8.40;7.60;;;;;;;28.16;nan;97062.50;3497791;40;20900;-70
2021/06/09 10:06:30;;;;;;;10.10;7.00;;;;;;;27.80;nan;97055.59;3498741;40;20471;-71
2021/06/09 10:09:07;;;;;;;9.03;7.60;;;;;;;29.09;nan;97056.22;3488696;40;20472;-70
2021/06/09 10:11:37;;;;;;;11.47;8.30;;;;;;;29.07;nan;97049.38;3497243;40;20658;-70
2021/06/09 10:14:15;;;;;;;10.80;7.57;;;;;;;28.49;nan;97042.81;3497456;40;20734;-70
2021/06/09 10:16:43;;;;;;;8.43;7.63;;;;;;;27.60;nan;97049.34;3496049;40;20452;-70
2021/06/09 10:19:12;;;;;;;10.40;7.47;;;;;;;26.96;nan;97050.47;3493801;40;20777;-71
2021/06/09 10:21:47;;;;;;;11.60;7.13;;;;;;;27.28;nan;97048.19;3499755;40;20539;-70
2021/06/09 10:24:15;;;;;;;11.73;8.30;;;;;;;26.66;nan;97039.97;3496422;40;20765;-70
2021/06/09 10:26:51;;;;;;;9.10;7.70;;;;;;;25.55;nan;97034.19;3498179;40;20903;-70
2021/06/09 10:29:21;;;;;;;16.20;9.50;;;;;;;25.30;nan;97036.38;3497964;40;20882;-70
2021/06/09 10:31:50;;;;;;;8.50;7.63;;;;;;;26.52;nan;97040.84;3498308;40;20904;-70
2021/06/09 10:34:19;;;;;;;8.67;7.33;;;;;;;27.20;nan;97043.78;3497933;40;20816;-69
2021/06/09 10:36:50;;;;;;;8.97;5.90;;;;;;;26.31;nan;97039.06;3488303;40;21100;-71
2021/06/09 10:39:19;;;;;;;9.40;7.37;;;;;;;25.40;nan;97035.06;3499238;40;20482;-70
2021/06/09 10:41:49;;;;;;;14.00;8.60;;;;;;;25.57;nan;97032.16;3499358;40;20449;-70
2021/06/09 10:44:19;;;;;;;8.13;7.27;;;;;;;26.31;nan;97036.38;3498366;40;20472;-71
2021/06/09 10:46:48;;;;;;;7.83;6.90;;;;;;;27.54;nan;97021.41;3498820;40;21151;-70
2021/06/09 10:49:18;;;;;;;10.53;7.17;;;;;;;28.78;nan;97046.97;3497497;40;20782;-70
2021/06/09 10:51:48;;;;;;;7.87;6.90;;;;;;;27.82;nan;97036.56;3498804;40;20460;-70
2021/06/09 10:54:16;;;;;;;8.80;7.40;;;;;;;27.53;nan;97035.03;3498201;40;21208;-70
2021/06/09 10:56:46;;;;;;;8.50;7.50;;;;;;;27.91;nan;97037.22;3498521;40;20710;-70
2021/06/09 10:59:16;;;;;;;11.83;8.00;;;;;;;28.18;nan;97038.06;3497764;40;20480;-70
2021/06/09 11:01:45;;;;;;;8.73;7.73;;;;;;;27.33;nan;97033.09;3496801;40;20566;-71
2021/06/09 11:04:13;;;;;;;28.20;20.20;;;;;;;27.54;nan;97040.22;3498185;40;20476;-70
2021/06/09 11:06:43;;;;;;;8.97;8.07;;;;;;;27.18;nan;97035.06;3498432;40;20474;-70
2021/06/09 11:09:18;;;;;;;12.90;7.17;;;;;;;26.77;nan;97033.22;3498564;40;20847;-71
2021/06/09 11:11:48;;;;;;;8.47;6.77;;;;;;;26.21;nan;97034.84;3499689;40;20694;-70
2021/06/09 11:14:20;;;;;;;12.37;7.77;;;;;;;26.84;nan;97039.47;3498905;40;20844;-71
2021/06/09 11:16:49;;;;;;;8.00;7.30;;;;;;;27.33;nan;97038.47;3500204;40;20826;-71
2021/06/09 11:19:35;;;;;;;8.50;7.67;;;;;;;27.96;nan;97032.06;3489715;40;20491;-70
2021/06/09 11:22:20;;;;;;;8.83;7.80;;;;;;;28.40;nan;97027.91;3498308;40;20460;-70
2021/06/09 11:25:13;;;;;;;10.23;7.57;;;;;;;29.68;nan;97013.88;3488787;40;20468;-70
2021/06/09 11:28:00;;;;;;;6.93;6.23;;;;;;;28.74;nan;97028.75;3496658;40;20850;-71
2021/06/09 11:30:50;;;;;;;13.33;7.63;;;;;;;28.33;nan;97024.41;3498219;40;20476;-70
2021/06/09 11:33:35;;;;;;;14.40;7.53;;;;;;;27.38;nan;97019.91;3498806;40;20936;-73
2021/06/09 11:36:05;;;;;;;8.23;7.27;;;;;;;27.29;nan;97015.72;3499101;40;20547;-73
2021/06/09 11:38:37;;;;;;;11.33;7.90;;;;;;;26.03;nan;97021.06;3497811;40;20452;-70
2021/06/09 11:41:08;;;;;;;8.93;8.00;;;;;;;26.86;nan;97009.72;3499701;40;20456;-70
2021/06/09 11:43:38;;;;;;;8.60;7.73;;;;;;;26.94;nan;97002.31;3497479;40;20865;-70
2021/06/09 11:46:07;;;;;;;9.00;7.63;;;;;;;26.80;nan;97000.59;3497021;40;20863;-70
2021/06/09 11:48:37;;;;;;;9.57;8.13;;;;;;;26.84;nan;96999.16;3497119;40;20503;-70
2021/06/09 11:51:26;;;;;;;8.00;7.13;;;;;;;26.80;nan;97000.59;3498052;40;20706;-70